Time;durP1;ratioP1;P1;durP2;ratioP2;P2;SDS_P1;SDS_P2;PMS_P1;PMS_P2;Temp;Humidity;BMP_temperature;BMP_pressure;BME280_temperature;BME280_humidity;BME280_pressure;Samples;Min_cycle;Max_cycle;Signal;HPM_P1;HPM_P2
2023/12/26 00:00:39;;;;;;;2.13;1.00;;;;;;;10.13;100.00;100501.16;5175529;27;20046;-76
2023/12/26 00:03:06;;;;;;;0.93;0.80;;;;;;;10.14;100.00;100499.97;5177715;27;20463;-77
2023/12/26 00:05:33;;;;;;;1.08;0.77;;;;;;;10.12;100.00;100488.31;5175994;27;20603;-76
2023/12/26 00:08:03;;;;;;;3.08;0.70;;;;;;;10.11;100.00;100497.47;5176471;27;20043;-76
2023/12/26 00:10:30;;;;;;;1.65;0.82;;;;;;;10.10;100.00;100486.06;5172347;27;20509;-74
2023/12/26 00:12:57;;;;;;;3.10;0.85;;;;;;;10.09;100.00;100503.22;5172336;27;20051;-74
2023/12/26 00:15:24;;;;;;;3.78;0.80;;;;;;;10.08;100.00;100485.78;5156459;27;20050;-74
2023/12/26 00:17:50;;;;;;;2.25;1.02;;;;;;;10.08;100.00;100495.69;5175207;27;20129;-74
2023/12/26 00:20:17;;;;;;;2.03;1.20;;;;;;;10.06;100.00;100493.47;5175413;27;20043;-74
2023/12/26 00:22:44;;;;;;;1.83;0.93;;;;;;;10.06;100.00;100496.13;5176260;27;20122;-74
2023/12/26 00:25:11;;;;;;;3.17;0.90;;;;;;;10.05;100.00;100502.63;5175766;27;20045;-76
2023/12/26 00:27:39;;;;;;;6.13;1.20;;;;;;;10.04;100.00;100491.25;5176023;27;20049;-77
2023/12/26 00:30:11;;;;;;;5.93;1.10;;;;;;;10.04;100.00;100493.16;5176506;27;20043;-77
2023/12/26 00:32:37;;;;;;;3.25;0.70;;;;;;;10.04;100.00;100503.78;5176159;27;20497;-77
2023/12/26 00:35:07;;;;;;;1.85;0.63;;;;;;;10.03;100.00;100481.78;5176867;27;20043;-77
2023/12/26 00:37:33;;;;;;;1.13;0.57;;;;;;;10.02;100.00;100496.25;5175625;27;20042;-77
2023/12/26 00:40:00;;;;;;;3.03;0.80;;;;;;;10.03;100.00;100483.69;5172115;27;20038;-77
2023/12/26 00:42:30;;;;;;;1.67;0.80;;;;;;;10.04;100.00;100496.56;5171350;27;20035;-77
2023/12/26 00:44:58;;;;;;;2.65;0.70;;;;;;;10.02;100.00;100488.28;5155574;27;20095;-78
2023/12/26 00:47:26;;;;;;;0.93;0.68;;;;;;;10.04;100.00;100493.16;5175057;27;20517;-77
2023/12/26 00:49:56;;;;;;;1.83;0.82;;;;;;;10.03;100.00;100492.41;5176422;27;20041;-77
2023/12/26 00:52:22;;;;;;;0.65;0.65;;;;;;;10.04;100.00;100509.13;5175673;27;20138;-77
2023/12/26 00:54:49;;;;;;;0.65;0.60;;;;;;;10.02;100.00;100506.16;5176391;27;20042;-76
2023/12/26 00:57:15;;;;;;;3.35;1.00;;;;;;;10.02;100.00;100511.47;5156739;27;20077;-76
2023/12/26 00:59:43;;;;;;;1.15;0.80;;;;;;;10.01;100.00;100510.72;5175640;27;20042;-77
2023/12/26 01:02:10;;;;;;;1.17;0.98;;;;;;;10.01;100.00;100510.00;5175806;27;20434;-77
2023/12/26 01:04:37;;;;;;;1.92;0.77;;;;;;;10.00;100.00;100503.19;5156727;27;20095;-76
2023/12/26 01:07:05;;;;;;;0.85;0.75;;;;;;;10.00;100.00;100503.94;5157982;27;20051;-77
2023/12/26 01:09:32;;;;;;;1.88;0.80;;;;;;;9.99;100.00;100512.38;5156429;27;20043;-77
2023/12/26 01:11:58;;;;;;;2.25;0.68;;;;;;;10.00;100.00;100509.25;5175644;27;20096;-76
2023/12/26 01:14:25;;;;;;;1.35;0.80;;;;;;;9.99;100.00;100499.09;5155535;27;20053;-76
2023/12/26 01:16:51;;;;;;;1.67;1.10;;;;;;;9.98;100.00;100505.59;5175742;27;20086;-77
2023/12/26 01:19:18;;;;;;;2.60;1.00;;;;;;;9.98;100.00;100508.97;5175520;27;20045;-77
2023/12/26 01:21:45;;;;;;;1.65;0.90;;;;;;;9.98;100.00;100511.66;5174880;27;20035;-77
2023/12/26 01:24:12;;;;;;;3.70;1.10;;;;;;;9.98;100.00;100518.88;5157087;27;20126;-77
2023/12/26 01:26:39;;;;;;;1.15;0.90;;;;;;;9.97;100.00;100517.41;5175881;27;20047;-77
2023/12/26 01:29:07;;;;;;;4.25;0.95;;;;;;;9.97;100.00;100510.16;5182254;27;20041;-77
2023/12/26 01:31:35;;;;;;;2.67;0.73;;;;;;;9.96;100.00;100518.56;5182751;27;20046;-76
2023/12/26 01:34:03;;;;;;;4.82;1.50;;;;;;;9.96;100.00;100529.94;5182095;27;20564;-76
2023/12/26 01:36:30;;;;;;;3.42;1.02;;;;;;;9.96;100.00;100532.63;5182177;27;20046;-76
2023/12/26 01:38:57;;;;;;;3.47;0.80;;;;;;;9.97;100.00;100517.41;5182251;27;20039;-76
2023/12/26 01:41:23;;;;;;;3.28;1.25;;;;;;;9.95;100.00;100525.81;5162437;27;20039;-76
2023/12/26 01:43:50;;;;;;;3.90;1.20;;;;;;;9.97;100.00;100525.38;5163377;27;20043;-77
2023/12/26 01:46:19;;;;;;;4.43;1.20;;;;;;;9.95;100.00;100531.13;5182341;27;20131;-77
2023/12/26 01:48:50;;;;;;;7.20;1.33;;;;;;;9.96;100.00;100521.25;5189743;27;20039;-80
2023/12/26 01:51:19;;;;;;;3.53;1.05;;;;;;;9.95;100.00;100536.44;5174548;27;20055;-80
2023/12/26 01:53:46;;;;;;;3.20;1.00;;;;;;;9.95;100.00;100538.38;5175765;27;20137;-81
2023/12/26 01:56:16;;;;;;;2.75;1.70;;;;;;;9.95;100.00;100541.03;5175090;27;20043;-79
2023/12/26 01:58:45;;;;;;;5.22;1.38;;;;;;;9.93;100.00;100548.69;5168965;27;20050;-80
2023/12/26 02:01:13;;;;;;;5.40;1.30;;;;;;;9.92;100.00;100547.97;5170223;27;20068;-80
2023/12/26 02:03:40;;;;;;;4.75;1.27;;;;;;;9.92;100.00;100555.94;5174820;27;20066;-78
2023/12/26 02:06:07;;;;;;;4.43;1.20;;;;;;;9.92;100.00;100560.50;5192453;27;20049;-78
2023/12/26 02:08:39;;;;;;;7.78;1.58;;;;;;;9.93;100.00;100568.06;5174365;27;20043;-79
2023/12/26 02:11:06;;;;;;;2.75;1.08;;;;;;;9.92;100.00;100557.84;5192992;27;20121;-79
2023/12/26 02:13:34;;;;;;;4.00;1.08;;;;;;;9.91;100.00;100569.66;5177132;27;20034;-80
2023/12/26 02:16:08;;;;;;;7.95;1.65;;;;;;;9.90;100.00;100571.59;5176626;27;20141;-80
2023/12/26 02:18:35;;;;;;;7.63;1.52;;;;;;;9.88;100.00;100587.25;5195970;27;20043;-80
2023/12/26 02:21:03;;;;;;;6.43;1.05;;;;;;;9.84;100.00;100594.59;5176361;27;20072;-79
2023/12/26 02:23:31;;;;;;;4.43;1.10;;;;;;;9.76;100.00;100595.31;5158733;27;20050;-80
2023/12/26 02:25:59;;;;;;;5.35;1.00;;;;;;;9.72;100.00;100610.63;5176677;27;20035;-79
2023/12/26 02:28:26;;;;;;;5.68;0.98;;;;;;;9.66;100.00;100589.94;5178241;27;20035;-79
2023/12/26 02:30:54;;;;;;;1.92;0.63;;;;;;;9.59;100.00;100608.81;5176847;27;20125;-80
2023/12/26 02:33:22;;;;;;;0.85;0.60;;;;;;;9.51;100.00;100593.56;5176515;27;20110;-79
2023/12/26 02:35:49;;;;;;;1.67;0.60;;;;;;;9.47;100.00;100620.28;5198340;27;20043;-80
2023/12/26 02:38:16;;;;;;;2.40;0.60;;;;;;;9.43;100.00;100613.59;5175779;27;20046;-79
2023/12/26 02:40:42;;;;;;;1.58;0.70;;;;;;;9.39;100.00;100616.38;5175080;27;20569;-79
2023/12/26 02:43:09;;;;;;;4.32;1.20;;;;;;;9.33;100.00;100616.19;5191549;27;20860;-79
2023/12/26 02:45:38;;;;;;;3.65;0.75;;;;;;;9.32;100.00;100621.94;5193708;27;20038;-79
2023/12/26 02:48:04;;;;;;;2.65;0.60;;;;;;;9.31;100.00;100615.13;5194668;27;20050;-79
2023/12/26 02:50:31;;;;;;;1.55;0.90;;;;;;;9.28;100.00;100611.44;5196888;27;20042;-79
2023/12/26 02:52:58;;;;;;;2.08;0.90;;;;;;;9.26;100.00;100608.47;5196358;27;20074;-80
2023/12/26 02:55:26;;;;;;;3.47;0.77;;;;;;;9.26;100.00;100613.03;5194558;27;20068;-79
2023/12/26 02:57:53;;;;;;;2.58;0.80;;;;;;;9.28;100.00;100616.00;5182559;27;20047;-79
2023/12/26 03:00:20;;;;;;;2.72;0.80;;;;;;;9.27;100.00;100623.22;5202783;27;20031;-79
2023/12/26 03:02:46;;;;;;;6.68;0.90;;;;;;;9.28;100.00;100626.63;5181082;27;20043;-80
2023/12/26 03:05:13;;;;;;;2.67;1.10;;;;;;;9.29;100.00;100639.47;5202097;27;20128;-80
2023/12/26 03:07:40;;;;;;;5.65;1.20;;;;;;;9.31;100.00;100637.13;5200311;27;20038;-80
2023/12/26 03:10:09;;;;;;;2.58;0.82;;;;;;;9.31;100.00;100636.38;5195375;27;20076;-80
2023/12/26 03:12:36;;;;;;;8.32;1.13;;;;;;;9.34;100.00;100636.28;5192797;27;20050;-80
2023/12/26 03:15:04;;;;;;;4.10;1.00;;;;;;;9.37;100.00;100645.28;5192546;27;20865;-80
2023/12/26 03:17:31;;;;;;;5.90;1.52;;;;;;;9.39;100.00;100650.16;5192522;27;20060;-80
2023/12/26 03:19:58;;;;;;;3.00;0.90;;;;;;;9.40;100.00;100654.31;5191679;27;20050;-80
2023/12/26 03:22:25;;;;;;;2.63;0.73;;;;;;;9.40;100.00;100662.28;5172867;27;20043;-80
2023/12/26 03:24:52;;;;;;;4.65;0.90;;;;;;;9.40;100.00;100655.06;5158675;27;20061;-80
2023/12/26 03:27:18;;;;;;;1.77;0.80;;;;;;;9.42;100.00;100651.97;5160626;27;20047;-81
2023/12/26 03:29:47;;;;;;;2.80;0.77;;;;;;;9.42;100.00;100666.00;5160764;27;20043;-81
2023/12/26 03:32:17;;;;;;;5.35;1.05;;;;;;;9.42;100.00;100686.50;5171838;27;20042;-80
2023/12/26 03:34:43;;;;;;;5.20;1.02;;;;;;;9.42;100.00;100686.50;5171971;27;20533;-80
2023/12/26 03:37:10;;;;;;;2.33;0.90;;;;;;;9.41;100.00;100685.03;5190922;27;20072;-80
2023/12/26 03:39:37;;;;;;;3.58;1.00;;;;;;;9.41;100.00;100679.72;5192464;27;20096;-80
2023/12/26 03:42:04;;;;;;;2.53;0.85;;;;;;;9.39;100.00;100679.41;5174304;27;20050;-80
2023/12/26 03:44:30;;;;;;;3.97;0.82;;;;;;;9.37;100.00;100695.75;5192514;27;20047;-81
2023/12/26 03:46:57;;;;;;;4.20;1.00;;;;;;;9.36;100.00;100702.25;5174199;27;20062;-81
2023/12/26 03:49:24;;;;;;;6.80;1.25;;;;;;;9.34;100.00;100708.00;5177501;27;20080;-81
2023/12/26 03:51:50;;;;;;;3.55;1.00;;;;;;;9.30;100.00;100704.72;5178593;27;20050;-81
2023/12/26 03:54:19;;;;;;;6.97;1.27;;;;;;;9.26;100.00;100698.78;5179475;27;20043;-81
2023/12/26 03:56:45;;;;;;;5.38;1.08;;;;;;;9.22;100.00;100700.81;5178913;27;20069;-81
2023/12/26 03:59:12;;;;;;;8.57;1.30;;;;;;;9.18;100.00;100705.53;5179022;27;20076;-80
2023/12/26 04:01:38;;;;;;;7.85;1.00;;;;;;;9.12;100.00;100704.56;5177592;27;20050;-80
2023/12/26 04:04:05;;;;;;;4.55;1.00;;;;;;;9.06;100.00;100708.94;5176329;27;20069;-81
2023/12/26 04:06:32;;;;;;;8.73;0.90;;;;;;;9.01;100.00;100722.75;5173646;27;20054;-80
2023/12/26 04:08:59;;;;;;;4.57;1.13;;;;;;;8.95;100.00;100733.19;5176981;27;20069;-80
2023/12/26 04:11:26;;;;;;;2.88;0.73;;;;;;;8.90;100.00;100709.81;5173404;27;20947;-80
2023/12/26 04:13:53;;;;;;;3.50;0.93;;;;;;;8.86;100.00;100735.00;5154995;27;20051;-81
2023/12/26 04:16:20;;;;;;;9.82;1.23;;;;;;;8.81;100.00;100738.19;5172470;27;20054;-81
2023/12/26 04:18:46;;;;;;;7.90;1.20;;;;;;;8.75;100.00;100735.34;5174386;27;20058;-80
2023/12/26 04:21:13;;;;;;;3.92;1.08;;;;;;;8.71;100.00;100731.31;5192483;27;20043;-80
2023/12/26 04:23:41;;;;;;;5.65;1.05;;;;;;;8.65;100.00;100742.47;5175004;27;20347;-80
2023/12/26 04:26:08;;;;;;;2.50;0.73;;;;;;;8.60;100.00;100731.63;5172506;27;20645;-80
2023/12/26 04:28:34;;;;;;;2.85;0.80;;;;;;;8.57;100.00;100761.66;5172480;27;20039;-80
2023/12/26 04:31:03;;;;;;;4.13;1.10;;;;;;;8.52;100.00;100760.28;5172783;27;20043;-80
2023/12/26 04:33:30;;;;;;;5.78;1.20;;;;;;;8.48;100.00;100754.34;5171528;27;20608;-80
2023/12/26 04:35:58;;;;;;;3.60;1.13;;;;;;;8.42;100.00;100756.03;5169171;27;20073;-80
2023/12/26 04:38:24;;;;;;;3.65;0.80;;;;;;;8.38;100.00;100750.09;5155374;27;20467;-80
2023/12/26 04:40:51;;;;;;;3.42;1.02;;;;;;;8.34;100.00;100757.41;5173470;27;21157;-80
2023/12/26 04:43:18;;;;;;;9.75;1.17;;;;;;;8.29;100.00;100763.97;5173114;27;20760;-80
2023/12/26 04:45:45;;;;;;;4.93;1.20;;;;;;;8.28;100.00;100770.44;5171217;27;20038;-80
2023/12/26 04:48:11;;;;;;;3.25;1.05;;;;;;;8.26;100.00;100780.72;5172572;27;20051;-80
2023/12/26 04:50:38;;;;;;;2.83;1.15;;;;;;;8.23;100.00;100776.25;5169758;27;20095;-80
2023/12/26 04:53:06;;;;;;;4.03;0.90;;;;;;;8.21;100.00;100777.84;5173142;27;20101;-80
2023/12/26 04:55:34;;;;;;;5.68;0.98;;;;;;;8.17;100.00;100791.19;5155704;27;20050;-80
2023/12/26 04:58:01;;;;;;;3.22;1.05;;;;;;;8.15;100.00;100806.78;5172383;27;20046;-80
2023/12/26 05:00:28;;;;;;;6.18;1.00;;;;;;;8.14;100.00;100797.34;5153725;27;20070;-81
2023/12/26 05:02:55;;;;;;;4.88;1.00;;;;;;;8.13;100.00;100803.81;5189186;27;20037;-80
2023/12/26 05:05:22;;;;;;;9.98;1.00;;;;;;;8.12;100.00;100806.88;5169370;27;20077;-80
2023/12/26 05:07:49;;;;;;;7.97;1.17;;;;;;;8.11;100.00;100811.44;5188575;27;20042;-80
2023/12/26 05:10:16;;;;;;;4.50;1.05;;;;;;;8.10;100.00;100823.19;5169246;27;20592;-80
2023/12/26 05:12:42;;;;;;;8.90;1.17;;;;;;;8.11;100.00;100816.75;5188335;27;20091;-80
2023/12/26 05:15:09;;;;;;;6.45;1.35;;;;;;;8.11;100.00;100816.75;5189205;27;20055;-80
2023/12/26 05:17:36;;;;;;;5.47;0.82;;;;;;;8.12;100.00;100817.47;5169912;27;20083;-81
2023/12/26 05:20:04;;;;;;;7.15;1.25;;;;;;;8.08;100.00;100830.09;5170657;27;20051;-80
2023/12/26 05:22:47;;;;;;;9.18;1.52;;;;;;;8.06;100.00;100829.75;5170691;27;20045;-80
2023/12/26 05:25:15;;;;;;;8.50;1.20;;;;;;;8.00;100.00;100822.31;5155003;27;20039;-80
2023/12/26 05:27:42;;;;;;;8.27;1.38;;;;;;;7.96;100.00;100834.94;5192535;27;20039;-80
2023/12/26 05:30:10;;;;;;;5.38;1.48;;;;;;;7.93;100.00;100832.38;5172293;27;20072;-81
2023/12/26 05:32:37;;;;;;;8.55;1.30;;;;;;;7.88;100.00;100830.97;5192582;27;20058;-80
2023/12/26 05:35:05;;;;;;;7.43;1.40;;;;;;;7.85;100.00;100836.38;5194302;27;20126;-81
2023/12/26 05:37:34;;;;;;;4.05;1.15;;;;;;;7.80;100.00;100844.81;5152802;27;20573;-81
2023/12/26 05:40:01;;;;;;;7.15;1.17;;;;;;;7.76;100.00;100849.47;5175567;27;20035;-80
2023/12/26 05:42:28;;;;;;;4.47;1.17;;;;;;;7.70;100.00;100860.56;5169694;27;20037;-80
2023/12/26 05:44:55;;;;;;;4.78;1.10;;;;;;;7.69;100.00;100868.94;5169425;27;20054;-80
2023/12/26 05:47:22;;;;;;;13.98;1.45;;;;;;;7.65;100.00;100876.97;5169938;27;20082;-80
2023/12/26 05:49:49;;;;;;;9.90;1.73;;;;;;;7.61;100.00;100878.97;5170047;27;20134;-80
2023/12/26 05:52:17;;;;;;;6.85;1.42;;;;;;;7.58;100.00;100887.75;5170499;27;20131;-80
2023/12/26 05:54:44;;;;;;;12.30;1.42;;;;;;;7.56;100.00;100884.78;5190651;27;20035;-80
2023/12/26 05:57:12;;;;;;;10.25;1.50;;;;;;;7.55;100.00;100904.47;5189695;27;20051;-80
2023/12/26 05:59:38;;;;;;;5.65;0.93;;;;;;;7.53;100.00;100909.44;5171282;27;20065;-80
2023/12/26 06:02:06;;;;;;;9.95;0.80;;;;;;;7.52;100.00;100909.84;5171943;27;20050;-80
2023/12/26 06:04:35;;;;;;;11.25;1.23;;;;;;;7.49;100.00;100919.38;5168257;27;20148;-80
2023/12/26 06:07:01;;;;;;;5.32;1.30;;;;;;;7.46;100.00;100922.84;5172939;27;20054;-80
2023/12/26 06:09:28;;;;;;;8.60;1.55;;;;;;;7.44;100.00;100935.75;5171770;27;20053;-80
2023/12/26 06:11:56;;;;;;;8.18;2.55;;;;;;;7.40;100.00;100932.44;5172996;27;20136;-80
2023/12/26 06:14:24;;;;;;;4.38;0.80;;;;;;;7.39;100.00;100936.25;5156345;27;20848;-80
2023/12/26 06:16:52;;;;;;;3.72;1.00;;;;;;;7.39;100.00;100943.44;5177708;27;20047;-80
2023/12/26 06:19:19;;;;;;;10.45;1.00;;;;;;;7.36;100.00;100947.66;5179232;27;20050;-80
2023/12/26 06:21:50;;;;;;;7.90;1.38;;;;;;;7.33;100.00;100951.13;5178863;27;20042;-80
2023/12/26 06:24:16;;;;;;;4.28;1.42;;;;;;;7.31;100.00;100956.84;5178361;27;20584;-80
2023/12/26 06:26:43;;;;;;;6.70;1.08;;;;;;;7.32;100.00;100958.34;5178478;27;20065;-80
2023/12/26 06:29:10;;;;;;;9.00;1.25;;;;;;;7.31;100.00;100958.75;5194096;27;20046;-80
2023/12/26 06:31:37;;;;;;;5.78;1.45;;;;;;;7.31;100.00;100974.63;5163114;27;20051;-80
2023/12/26 06:34:03;;;;;;;3.78;1.10;;;;;;;7.29;100.00;100984.88;5170599;27;20053;-80
2023/12/26 06:36:32;;;;;;;4.90;1.42;;;;;;;7.27;100.00;100990.59;5169334;27;20058;-80
2023/12/26 06:39:03;;;;;;;6.25;1.38;;;;;;;7.25;100.00;100987.59;5171130;27;20096;-80
2023/12/26 06:41:30;;;;;;;9.75;1.48;;;;;;;7.23;100.00;100981.97;5170734;27;21836;-80
2023/12/26 06:43:57;;;;;;;5.75;1.35;;;;;;;7.20;100.00;100982.78;5189999;27;20045;-80
2023/12/26 06:46:25;;;;;;;9.48;1.38;;;;;;;7.18;100.00;100987.03;5170933;27;20844;-80
2023/12/26 06:48:52;;;;;;;8.30;1.08;;;;;;;7.15;100.00;100985.19;5170509;27;20050;-80
2023/12/26 06:51:19;;;;;;;5.50;1.13;;;;;;;7.16;100.00;100997.28;5172053;27;20051;-80
2023/12/26 06:53:47;;;;;;;7.85;1.13;;;;;;;7.15;100.00;100993.13;5170885;27;20100;-80
2023/12/26 06:56:14;;;;;;;10.93;1.40;;;;;;;7.13;100.00;100996.19;5173713;27;20050;-80
2023/12/26 06:58:41;;;;;;;5.40;0.93;;;;;;;7.10;100.00;100994.38;5172880;27;20576;-80
2023/12/26 07:01:09;;;;;;;7.53;1.33;;;;;;;7.09;100.00;100997.41;5191002;27;20038;-80
2023/12/26 07:03:36;;;;;;;5.10;1.17;;;;;;;7.07;100.00;101000.47;5174786;27;20106;-80
2023/12/26 07:06:03;;;;;;;9.77;1.40;;;;;;;7.07;100.00;101008.41;5174894;27;20050;-80
2023/12/26 07:08:30;;;;;;;9.48;1.23;;;;;;;7.06;100.00;101004.28;5194438;27;20039;-80
2023/12/26 07:10:57;;;;;;;2.70;0.80;;;;;;;7.03;100.00;101002.44;5195617;27;20512;-80
2023/12/26 07:13:24;;;;;;;6.40;1.23;;;;;;;7.02;100.00;101011.53;5195420;27;20053;-80
2023/12/26 07:15:52;;;;;;;13.48;1.20;;;;;;;7.01;100.00;101016.09;5194404;27;20047;-79
2023/12/26 07:18:21;;;;;;;8.02;0.95;;;;;;;6.99;100.00;101018.38;5197308;27;20038;-79
2023/12/26 07:20:48;;;;;;;7.05;1.08;;;;;;;6.98;100.00;101016.16;5194122;27;20088;-79
2023/12/26 07:23:15;;;;;;;5.03;1.05;;;;;;;6.97;100.00;101017.31;5192050;27;20033;-79
2023/12/26 07:25:42;;;;;;;8.10;0.88;;;;;;;6.96;100.00;101024.50;5188264;27;20103;-81
2023/12/26 07:28:14;;;;;;;7.32;1.23;;;;;;;6.94;100.00;101034.00;5189955;27;20045;-80
2023/12/26 07:30:41;;;;;;;8.20;1.92;;;;;;;6.93;100.00;101033.25;5172253;27;20047;-79
2023/12/26 07:33:08;;;;;;;3.90;1.20;;;;;;;6.92;100.00;101037.03;5186221;27;20043;-80
2023/12/26 07:35:36;;;;;;;6.85;1.17;;;;;;;6.90;100.00;101038.59;5183195;27;20092;-79
2023/12/26 07:38:03;;;;;;;5.63;1.23;;;;;;;6.88;100.00;101035.63;5183255;27;20092;-80
2023/12/26 07:40:31;;;;;;;5.50;1.15;;;;;;;6.87;100.00;101053.38;5188837;27;20397;-79
2023/12/26 07:42:58;;;;;;;5.63;1.58;;;;;;;6.87;100.00;101057.94;5189433;27;20561;-77
2023/12/26 07:45:25;;;;;;;12.40;1.98;;;;;;;6.88;100.00;101062.06;5186628;27;20485;-79
2023/12/26 07:47:52;;;;;;;9.85;1.33;;;;;;;6.88;100.00;101067.38;5191944;27;20049;-79
2023/12/26 07:50:19;;;;;;;8.15;1.52;;;;;;;6.86;100.00;101073.06;5176981;27;20031;-80
2023/12/26 07:52:46;;;;;;;11.07;1.83;;;;;;;6.87;100.00;101082.50;5192804;27;20050;-79
2023/12/26 07:55:13;;;;;;;8.73;1.20;;;;;;;6.89;100.00;101093.44;5166843;27;20551;-78
2023/12/26 07:57:44;;;;;;;8.70;1.02;;;;;;;6.89;100.00;101093.44;5189760;27;20134;-79
2023/12/26 08:00:11;;;;;;;8.23;1.40;;;;;;;6.88;100.00;101091.19;5194558;27;20045;-80
2023/12/26 08:02:39;;;;;;;6.13;1.20;;;;;;;6.86;100.00;101091.59;5191650;27;20039;-79
2023/12/26 08:05:06;;;;;;;5.88;1.40;;;;;;;6.88;100.00;101099.88;5193454;27;20901;-80
2023/12/26 08:07:33;;;;;;;13.18;1.80;;;;;;;6.91;100.00;101098.31;5171227;27;20043;-80
2023/12/26 08:10:00;;;;;;;7.80;1.52;;;;;;;6.92;100.00;101110.41;5190423;27;20047;-78
2023/12/26 08:12:26;;;;;;;8.73;1.30;;;;;;;6.93;100.00;101111.91;5188222;27;20046;-80
2023/12/26 08:14:53;;;;;;;7.60;1.30;;;;;;;6.92;100.00;101123.63;5171275;27;20212;-80
2023/12/26 08:17:20;;;;;;;8.40;1.52;;;;;;;6.93;100.00;101120.59;5168987;27;20051;-77
2023/12/26 08:19:47;;;;;;;11.63;1.33;;;;;;;6.95;99.60;101117.53;5187978;27;20047;-80
2023/12/26 08:22:13;;;;;;;2.65;0.93;;;;;;;6.97;99.41;101121.28;5187929;27;20138;-79
2023/12/26 08:24:40;;;;;;;5.28;1.17;;;;;;;6.99;99.24;101132.22;5190031;27;20102;-79
2023/12/26 08:27:07;;;;;;;9.38;1.17;;;;;;;7.02;98.76;101147.28;5187598;27;20497;-78
2023/12/26 08:29:34;;;;;;;6.82;1.35;;;;;;;7.05;98.37;101143.09;5183638;27;20047;-78
2023/12/26 08:32:00;;;;;;;3.45;0.90;;;;;;;7.05;98.50;101153.66;5180273;27;20566;-78
2023/12/26 08:34:27;;;;;;;9.05;1.98;;;;;;;7.01;98.47;101164.31;5177948;27;20082;-78
2023/12/26 08:36:54;;;;;;;4.72;1.17;;;;;;;7.03;98.62;101158.63;5182463;27;20547;-79
2023/12/26 08:39:20;;;;;;;7.10;1.50;;;;;;;7.05;98.70;101163.50;5170996;27;20074;-79
2023/12/26 08:41:47;;;;;;;6.32;1.30;;;;;;;7.05;98.78;101161.63;5167209;27;20047;-80
2023/12/26 08:44:14;;;;;;;6.43;1.42;;;;;;;7.08;98.87;101163.47;5166562;27;20042;-80
2023/12/26 08:46:41;;;;;;;11.23;1.23;;;;;;;7.11;99.06;101173.25;5185984;27;20512;-79
2023/12/26 08:49:07;;;;;;;6.25;1.13;;;;;;;7.14;99.13;101179.63;5184484;27;20047;-80
2023/12/26 08:51:39;;;;;;;4.97;1.33;;;;;;;7.14;99.30;101190.97;5165190;27;20137;-79
2023/12/26 08:54:06;;;;;;;6.90;1.42;;;;;;;7.14;99.26;101201.56;5187606;27;20049;-80
2023/12/26 08:56:38;;;;;;;10.38;1.27;;;;;;;7.16;99.45;101195.84;5185769;27;20043;-80
2023/12/26 08:59:05;;;;;;;6.38;1.17;;;;;;;7.17;99.41;101202.66;5164932;27;20047;-79
2023/12/26 09:01:35;;;;;;;7.70;1.40;;;;;;;7.14;99.58;101198.91;5183835;27;20121;-80
2023/12/26 09:04:03;;;;;;;4.32;1.58;;;;;;;7.13;99.97;101209.91;5182014;27;20051;-81
2023/12/26 09:06:30;;;;;;;7.40;1.70;;;;;;;7.12;100.00;101208.41;5167691;27;20035;-81
2023/12/26 09:08:57;;;;;;;8.27;1.42;;;;;;;7.14;100.00;101222.00;5168528;27;20818;-79
2023/12/26 09:11:23;;;;;;;5.13;1.10;;;;;;;7.14;100.00;101222.75;5188426;27;20529;-79
2023/12/26 09:13:50;;;;;;;8.07;1.42;;;;;;;7.18;100.00;101227.97;5168585;27;20073;-79
2023/12/26 09:16:16;;;;;;;8.95;1.70;;;;;;;7.20;100.00;101242.28;5187861;27;20061;-79
2023/12/26 09:18:43;;;;;;;6.25;1.45;;;;;;;7.22;100.00;101247.94;5168774;27;20097;-79
2023/12/26 09:21:11;;;;;;;8.48;1.48;;;;;;;7.26;100.00;101255.81;5188781;27;20776;-79
2023/12/26 09:23:38;;;;;;;6.00;1.48;;;;;;;7.29;100.00;101258.41;5189354;27;20039;-80
2023/12/26 09:26:05;;;;;;;7.38;1.45;;;;;;;7.33;100.00;101261.75;5187586;27;20497;-78
2023/12/26 09:28:32;;;;;;;8.65;1.40;;;;;;;7.37;100.00;101269.63;5183744;27;20118;-79
2023/12/26 09:30:59;;;;;;;7.68;1.55;;;;;;;7.39;100.00;101269.97;5181927;27;20497;-79
2023/12/26 09:33:27;;;;;;;6.47;1.20;;;;;;;7.43;99.94;101267.28;5167817;27;20121;-78
2023/12/26 09:35:54;;;;;;;8.65;1.60;;;;;;;7.46;99.81;101266.47;5169783;27;20118;-80
2023/12/26 09:38:20;;;;;;;7.63;1.40;;;;;;;7.50;99.84;101273.22;5186792;27;20043;-81
2023/12/26 09:40:47;;;;;;;9.77;1.33;;;;;;;7.52;99.41;101275.44;5191388;27;20092;-81
2023/12/26 09:43:14;;;;;;;7.47;1.42;;;;;;;7.55;99.27;101282.59;5151439;27;20043;-78
2023/12/26 09:45:41;;;;;;;5.30;1.35;;;;;;;7.57;99.11;101286.34;5190357;27;20162;-80
2023/12/26 09:48:10;;;;;;;9.48;1.85;;;;;;;7.59;98.78;101294.63;5191085;27;20042;-79
2023/12/26 09:50:37;;;;;;;4.93;1.42;;;;;;;7.63;99.28;101308.53;5172647;27;20043;-81
2023/12/26 09:53:08;;;;;;;8.55;1.55;;;;;;;7.66;98.92;101307.72;5181280;27;20058;-82
2023/12/26 09:55:35;;;;;;;11.40;1.98;;;;;;;7.68;98.69;101307.31;5181500;27;20035;-82
2023/12/26 09:58:02;;;;;;;13.27;1.50;;;;;;;7.71;98.61;101330.38;5180202;27;20035;-82
2023/12/26 10:00:31;;;;;;;7.28;1.60;;;;;;;7.75;98.28;101333.72;5163704;27;20063;-82
2023/12/26 10:03:00;;;;;;;10.02;2.08;;;;;;;7.81;98.08;101334.75;5182710;27;20110;-83
2023/12/26 10:05:27;;;;;;;8.15;1.77;;;;;;;7.85;97.55;101334.69;5180174;27;20095;-81
2023/12/26 10:07:54;;;;;;;10.80;1.52;;;;;;;7.91;97.12;101327.75;5195616;27;20031;-78
2023/12/26 10:10:21;;;;;;;12.45;1.77;;;;;;;7.96;96.61;101340.56;5194103;27;20064;-83
2023/12/26 10:12:49;;;;;;;11.27;2.35;;;;;;;7.98;96.20;101339.00;5180567;27;20053;-82
2023/12/26 10:15:18;;;;;;;13.35;1.40;;;;;;;8.04;96.40;101352.50;5199806;27;20039;-82
2023/12/26 10:17:45;;;;;;;5.53;1.35;;;;;;;8.08;95.92;101347.88;5158560;27;20526;-82
2023/12/26 10:20:16;;;;;;;10.77;2.05;;;;;;;8.13;95.74;101354.63;5192643;27;20046;-79
2023/12/26 10:22:44;;;;;;;8.77;1.83;;;;;;;8.16;95.18;101349.25;5192427;27;20063;-80
2023/12/26 10:25:14;;;;;;;13.20;1.45;;;;;;;8.20;94.65;101354.50;5170789;27;20352;-80
2023/12/26 10:27:53;;;;;;;14.55;1.73;;;;;;;8.24;94.90;101352.53;5173823;27;20834;-79
2023/12/26 10:30:20;;;;;;;10.25;1.80;;;;;;;8.24;93.79;101358.59;5189771;27;20099;-79
2023/12/26 10:32:57;;;;;;;10.38;2.15;;;;;;;8.28;94.45;101364.56;5193339;27;20049;-79
2023/12/26 10:35:25;;;;;;;13.30;1.63;;;;;;;8.30;93.97;101364.91;5172696;27;20047;-81
2023/12/26 10:37:55;;;;;;;11.32;1.48;;;;;;;8.35;93.81;101361.81;5176568;27;20851;-81
2023/12/26 10:40:23;;;;;;;7.22;1.67;;;;;;;8.43;93.50;101356.34;5192924;27;20043;-79
2023/12/26 10:42:53;;;;;;;12.77;1.85;;;;;;;8.51;92.22;101370.97;5176565;27;20072;-80
2023/12/26 10:45:21;;;;;;;7.07;1.73;;;;;;;8.61;92.16;101370.03;5174776;27;20920;-79
2023/12/26 10:47:49;;;;;;;13.48;1.38;;;;;;;8.66;91.54;101380.16;5193921;27;20061;-82
2023/12/26 10:50:18;;;;;;;8.30;1.27;;;;;;;8.70;90.90;101388.81;5168192;27;20066;-84
2023/12/26 10:53:07;;;;;;;9.43;1.80;;;;;;;8.74;91.84;101389.50;5191195;27;20042;-82
2023/12/26 10:55:36;;;;;;;12.45;1.70;;;;;;;8.78;89.84;101389.41;5189990;27;20041;-80
2023/12/26 10:58:23;;;;;;;8.93;1.70;;;;;;;8.87;90.57;101392.25;5193143;27;20035;-79
2023/12/26 13:51:42;;;;;;;6.75;2.00;;;;;;;8.77;80.92;101598.38;5178787;27;20051;-82
2023/12/26 13:54:49;;;;;;;11.60;2.50;;;;;;;8.79;80.56;101613.91;5181473;27;20043;-82
2023/12/26 13:57:16;;;;;;;6.45;1.63;;;;;;;8.79;79.94;101621.88;5160912;27;20050;-82
2023/12/26 13:59:42;;;;;;;4.72;1.77;;;;;;;8.78;80.54;101620.38;5181630;27;20050;-85
2023/12/26 14:02:09;;;;;;;6.80;2.22;;;;;;;8.75;80.74;101611.31;5164103;27;20038;-81
2023/12/26 14:04:36;;;;;;;6.50;1.25;;;;;;;8.72;80.73;101609.47;5182017;27;20163;-81
2023/12/26 14:07:44;;;;;;;6.70;1.55;;;;;;;8.67;81.52;101610.69;5165627;27;20047;-81
2023/12/26 14:10:48;;;;;;;7.18;1.48;;;;;;;8.66;81.43;101619.81;5181897;27;20039;-82
2023/12/26 14:13:53;;;;;;;5.47;1.67;;;;;;;8.62;81.89;101619.09;5168024;27;20095;-82
2023/12/26 14:17:01;;;;;;;8.13;1.70;;;;;;;8.59;82.22;101616.50;5183435;27;20055;-82
2023/12/26 14:20:05;;;;;;;7.35;1.40;;;;;;;8.58;82.24;101621.06;5183566;27;20054;-82